Time;durP1;ratioP1;P1;durP2;ratioP2;P2;SDS_P1;SDS_P2;PMS_P1;PMS_P2;Temp;Humidity;BMP_temperature;BMP_pressure;BME280_temperature;BME280_humidity;BME280_pressure;Samples;Min_cycle;Max_cycle;Signal;HPM_P1;HPM_P2
2023/04/23 00:02:12;;;;;;;;;;;;;;;7.22;100.00;98981.25;4923428;29;19934;-85
2023/04/23 00:04:38;;;;;;;;;;;;;;;7.22;100.00;98976.81;4905765;29;19919;-85
2023/04/23 00:07:04;;;;;;;;;;;;;;;7.19;100.00;98979.75;4911126;29;19923;-85
2023/04/23 00:09:31;;;;;;;;;;;;;;;7.09;100.00;98976.44;4890715;29;19986;-84
2023/04/23 00:11:58;;;;;;;;;;;;;;;7.07;100.00;98982.66;4899807;29;19958;-85
2023/04/23 00:14:23;;;;;;;;;;;;;;;7.01;100.00;98982.47;4911286;29;19940;-85
2023/04/23 00:16:49;;;;;;;;;;;;;;;6.87;100.00;98979.47;4927674;29;20443;-85
2023/04/23 00:19:15;;;;;;;;;;;;;;;6.82;100.00;98979.94;4920146;29;19919;-84
2023/04/23 00:21:40;;;;;;;;;;;;;;;6.83;100.00;98981.56;4910429;29;20034;-85
2023/04/23 00:24:06;;;;;;;;;;;;;;;6.85;100.00;98977.97;4920804;29;19971;-85
2023/04/23 00:26:32;;;;;;;;;;;;;;;6.64;100.00;98979.19;4931209;29;20597;-85
2023/04/23 00:28:58;;;;;;;;;;;;;;;6.36;100.00;98980.13;4926019;29;20378;-85
2023/04/23 00:31:25;;;;;;;;;;;;;;;6.23;100.00;98985.78;4911777;29;20357;-85
2023/04/23 00:33:52;;;;;;;;;;;;;;;6.03;100.00;98983.31;4922486;29;20055;-85
2023/04/23 00:36:17;;;;;;;;;;;;;;;5.86;100.00;98986.75;4914237;29;20647;-85
2023/04/23 00:38:43;;;;;;;;;;;;;;;5.72;100.00;98986.28;4910668;29;20499;-85
2023/04/23 00:41:09;;;;;;;;;;;;;;;5.81;100.00;98988.03;4916636;29;19924;-85
2023/04/23 00:43:36;;;;;;;;;;;;;;;5.81;100.00;98997.72;4912659;29;19975;-84
2023/04/23 00:46:02;;;;;;;;;;;;;;;5.83;100.00;98995.72;4887417;29;19919;-81
2023/04/23 00:48:28;;;;;;;;;;;;;;;5.72;100.00;98999.41;4895354;29;20026;-85
2023/04/23 00:51:02;;;;;;;;;;;;;;;5.51;100.00;98994.47;4902504;29;20029;-85
2023/04/23 00:53:28;;;;;;;;;;;;;;;5.49;100.00;98994.59;4885960;29;20288;-84
2023/04/23 00:55:54;;;;;;;;;;;;;;;5.34;100.00;98994.25;4920787;29;19923;-85
2023/04/23 00:58:20;;;;;;;;;;;;;;;5.39;100.00;98993.81;4911206;29;20021;-85
2023/04/23 01:00:47;;;;;;;;;;;;;;;5.27;100.00;98988.78;4913740;29;19990;-85
2023/04/23 01:03:17;;;;;;;;;;;;;;;5.31;100.00;99002.41;4922382;29;19924;-86
2023/04/23 01:05:43;;;;;;;;;;;;;;;5.37;100.00;98995.78;4937196;29;19926;-85
2023/04/23 01:08:14;;;;;;;;;;;;;;;5.16;100.00;98995.03;4928041;29;19919;-86
2023/04/23 01:10:40;;;;;;;;;;;;;;;5.19;100.00;98996.56;4910482;29;19925;-85
2023/04/23 01:13:06;;;;;;;;;;;;;;;5.26;100.00;98997.63;4922118;29;19923;-85
2023/04/23 01:15:32;;;;;;;;;;;;;;;5.20;100.00;98992.97;4934552;29;19923;-85
2023/04/23 01:17:58;;;;;;;;;;;;;;;5.25;100.00;98993.34;4940652;28;19926;-85
2023/04/23 01:20:24;;;;;;;;;;;;;;;5.32;100.00;98990.94;4927652;29;19926;-86
2023/04/23 01:22:50;;;;;;;;;;;;;;;5.35;100.00;98995.94;4915737;29;19937;-86
2023/04/23 01:25:15;;;;;;;;;;;;;;;5.38;100.00;98993.00;4934918;29;20291;-86
2023/04/23 01:27:41;;;;;;;;;;;;;;;5.42;100.00;98996.97;4942457;28;19927;-86
2023/04/23 01:30:08;;;;;;;;;;;;;;;5.46;100.00;98998.31;4936165;28;19923;-85
2023/04/23 01:32:34;;;;;;;;;;;;;;;5.52;100.00;98998.72;4910423;29;20546;-86
2023/04/23 01:35:01;;;;;;;;;;;;;;;5.53;100.00;98992.50;4909533;29;19962;-86
2023/04/23 01:37:28;;;;;;;;;;;;;;;5.54;100.00;98997.59;4894986;29;19918;-85
2023/04/23 01:39:54;;;;;;;;;;;;;;;5.56;100.00;98986.94;4921313;29;19926;-85
2023/04/23 01:42:19;;;;;;;;;;;;;;;5.58;100.00;98991.09;4923205;29;20001;-85
2023/04/23 01:44:46;;;;;;;;;;;;;;;5.57;100.00;98993.88;4927382;29;19923;-86
2023/04/23 01:47:11;;;;;;;;;;;;;;;5.59;100.00;98989.28;4912432;29;19930;-79
2023/04/23 01:49:37;;;;;;;;;;;;;;;5.59;100.00;98984.88;4933441;29;20383;-80
2023/04/23 01:52:03;;;;;;;;;;;;;;;5.59;100.00;98984.88;4928922;29;19919;-80
2023/04/23 01:54:28;;;;;;;;;;;;;;;5.53;100.00;98990.69;4919445;29;19922;-80
2023/04/23 01:56:54;;;;;;;;;;;;;;;5.52;100.00;98986.44;4942801;28;19951;-80
2023/04/23 01:59:21;;;;;;;;;;;;;;;5.54;100.00;98988.91;4930436;29;19930;-80
2023/04/23 02:01:47;;;;;;;;;;;;;;;5.58;100.00;98985.84;4919877;29;20359;-86
2023/04/23 02:04:13;;;;;;;;;;;;;;;5.66;100.00;98981.66;4902614;29;19926;-86
2023/04/23 02:06:40;;;;;;;;;;;;;;;5.70;100.00;98978.59;4916359;29;20391;-86
2023/04/23 02:09:06;;;;;;;;;;;;;;;5.72;100.00;98983.69;4899160;29;19973;-86
2023/04/23 02:11:32;;;;;;;;;;;;;;;5.75;100.00;98986.00;4912159;29;19927;-86
2023/04/23 02:13:58;;;;;;;;;;;;;;;5.77;100.00;98989.31;4919564;29;19963;-86
2023/04/23 02:16:23;;;;;;;;;;;;;;;5.79;100.00;98989.16;4945797;28;19926;-86
2023/04/23 02:18:49;;;;;;;;;;;;;;;5.80;100.00;98978.50;4906264;29;20027;-86
2023/04/23 02:21:16;;;;;;;;;;;;;;;5.80;100.00;98985.53;4906772;29;19919;-86
2023/04/23 02:23:41;;;;;;;;;;;;;;;5.72;100.00;98983.69;4938437;28;20070;-86
2023/04/23 02:26:07;;;;;;;;;;;;;;;5.69;100.00;98990.06;4909271;29;20423;-86
2023/04/23 02:28:33;;;;;;;;;;;;;;;5.64;100.00;98988.88;4949657;28;19922;-86
2023/04/23 02:30:59;;;;;;;;;;;;;;;5.60;100.00;98988.31;4929711;29;19929;-86
2023/04/23 02:33:25;;;;;;;;;;;;;;;5.62;100.00;98991.63;4894503;29;19923;-86
2023/04/23 02:35:51;;;;;;;;;;;;;;;5.66;100.00;98990.34;4915264;29;19919;-86
2023/04/23 02:38:16;;;;;;;;;;;;;;;5.71;100.00;98987.28;4915335;29;19926;-86
2023/04/23 02:40:42;;;;;;;;;;;;;;;5.74;100.00;98994.84;4924433;29;20399;-86
2023/04/23 02:43:08;;;;;;;;;;;;;;;5.78;100.00;98996.19;4903200;29;20298;-86
2023/04/23 02:45:33;;;;;;;;;;;;;;;5.78;100.00;98998.00;4911828;29;19978;-86
2023/04/23 02:47:59;;;;;;;;;;;;;;;5.71;100.00;99000.38;4924794;29;19919;-86
2023/04/23 02:50:25;;;;;;;;;;;;;;;5.62;100.00;98999.50;4896897;29;19925;-86
2023/04/23 02:52:51;;;;;;;;;;;;;;;5.54;100.00;99007.25;4893059;29;19922;-86
2023/04/23 02:55:17;;;;;;;;;;;;;;;5.45;100.00;99007.16;4930010;29;20017;-86
2023/04/23 02:57:44;;;;;;;;;;;;;;;5.38;100.00;99007.91;4912496;29;20022;-86
2023/04/23 03:00:11;;;;;;;;;;;;;;;5.28;100.00;99011.41;4942165;29;20486;-86
2023/04/23 03:02:40;;;;;;;;;;;;;;;5.24;100.00;99007.41;4941304;28;19923;-86
2023/04/23 03:05:06;;;;;;;;;;;;;;;5.23;100.00;99008.38;4923058;29;20070;-87
2023/04/23 03:07:32;;;;;;;;;;;;;;;5.20;100.00;99004.28;4941184;28;19930;-85
2023/04/23 03:09:57;;;;;;;;;;;;;;;5.19;100.00;99004.41;4916690;29;19922;-86
2023/04/23 03:12:23;;;;;;;;;;;;;;;5.14;100.00;98999.63;4903486;29;20316;-87
2023/04/23 03:14:49;;;;;;;;;;;;;;;5.05;100.00;99005.69;4843193;29;20005;-86
2023/04/23 03:17:15;;;;;;;;;;;;;;;4.96;100.00;99010.00;4894404;29;19919;-86
2023/04/23 03:19:40;;;;;;;;;;;;;;;4.90;100.00;99010.59;4927450;29;19929;-86
2023/04/23 03:22:06;;;;;;;;;;;;;;;4.86;100.00;99011.84;4904042;29;19933;-86
2023/04/23 03:24:32;;;;;;;;;;;;;;;4.81;100.00;99014.91;4925731;29;20173;-86
2023/04/23 03:26:58;;;;;;;;;;;;;;;4.77;100.00;99018.75;4940757;28;19919;-86
2023/04/23 03:29:25;;;;;;;;;;;;;;;4.72;100.00;99019.19;4938063;29;19981;-86
2023/04/23 03:31:51;;;;;;;;;;;;;;;4.70;100.00;99019.31;4943121;28;19919;-86
2023/04/23 03:34:16;;;;;;;;;;;;;;;4.69;100.00;99024.69;4929346;29;19918;-86
2023/04/23 03:36:43;;;;;;;;;;;;;;;4.66;100.00;99019.75;4931145;29;19958;-86
2023/04/23 03:39:09;;;;;;;;;;;;;;;4.65;100.00;99029.38;4893352;29;19923;-86
2023/04/23 03:41:48;;;;;;;;;;;;;;;4.65;100.00;99021.53;4915566;29;20009;-85
2023/04/23 03:44:15;;;;;;;;;;;;;;;4.68;100.00;99025.69;4922078;29;19923;-86
2023/04/23 03:46:43;;;;;;;;;;;;;;;4.69;100.00;99019.47;4905698;29;19919;-86
2023/04/23 03:49:09;;;;;;;;;;;;;;;4.70;100.00;99024.56;4941666;29;20465;-86
2023/04/23 03:51:35;;;;;;;;;;;;;;;4.71;100.00;99015.72;4899670;29;19919;-86
2023/04/23 03:54:01;;;;;;;;;;;;;;;4.71;100.00;99020.97;4919695;29;19926;-87
2023/04/23 03:56:41;;;;;;;;;;;;;;;4.74;100.00;99019.03;4931571;29;19919;-86
2023/04/23 03:59:12;;;;;;;;;;;;;;;4.75;100.00;99018.06;4914285;29;19962;-86
2023/04/23 04:01:38;;;;;;;;;;;;;;;4.72;100.00;99020.00;4936945;28;20411;-86
2023/04/23 04:04:04;;;;;;;;;;;;;;;4.72;100.00;99032.25;4928588;29;19923;-87
2023/04/23 04:06:31;;;;;;;;;;;;;;;4.71;100.00;99025.38;4921838;29;19919;-86
2023/04/23 04:08:57;;;;;;;;;;;;;;;4.70;100.00;99021.94;4901854;29;19919;-86
2023/04/23 04:11:22;;;;;;;;;;;;;;;4.67;100.00;99024.00;4923954;29;20360;-87
2023/04/23 04:13:48;;;;;;;;;;;;;;;4.66;100.00;99031.03;4925002;29;19973;-87
2023/04/23 04:16:14;;;;;;;;;;;;;;;4.68;100.00;99030.91;4912571;29;20376;-80
2023/04/23 04:18:39;;;;;;;;;;;;;;;4.70;100.00;99034.19;4907388;29;19919;-80
2023/04/23 04:21:06;;;;;;;;;;;;;;;4.70;100.00;99028.94;4937245;29;19923;-86
2023/04/23 04:23:32;;;;;;;;;;;;;;;4.71;100.00;99039.28;4889623;29;19966;-86
2023/04/23 04:25:58;;;;;;;;;;;;;;;4.72;100.00;99033.09;4932196;29;20005;-86
2023/04/23 04:28:24;;;;;;;;;;;;;;;4.70;100.00;99036.81;4916509;29;19923;-86
2023/04/23 04:30:52;;;;;;;;;;;;;;;4.75;100.00;99031.16;4915327;29;19926;-86
2023/04/23 04:33:19;;;;;;;;;;;;;;;4.76;100.00;99025.75;4916467;29;20374;-86
2023/04/23 04:35:45;;;;;;;;;;;;;;;4.77;100.00;99029.22;4890594;29;19966;-86
2023/04/23 04:38:11;;;;;;;;;;;;;;;4.77;100.00;99030.06;4877137;29;19969;-86
2023/04/23 04:40:37;;;;;;;;;;;;;;;4.75;100.00;99036.38;4912326;29;19950;-86
2023/04/23 04:43:04;;;;;;;;;;;;;;;4.74;100.00;99032.97;4917186;29;20344;-86
2023/04/23 04:45:29;;;;;;;;;;;;;;;4.76;100.00;99035.44;4880556;29;19930;-87
2023/04/23 04:47:55;;;;;;;;;;;;;;;4.79;100.00;99029.91;4927933;29;19918;-87
2023/04/23 04:50:21;;;;;;;;;;;;;;;4.80;100.00;99031.56;4897939;29;19919;-86
2023/04/23 04:52:47;;;;;;;;;;;;;;;4.82;100.00;99029.63;4891396;29;19919;-86
2023/04/23 04:55:12;;;;;;;;;;;;;;;4.84;100.00;99033.75;4922595;29;19923;-87
2023/04/23 04:57:38;;;;;;;;;;;;;;;4.86;100.00;99038.03;4896357;29;20357;-87
2023/04/23 05:00:28;;;;;;;;;;;;;;;4.82;100.00;99037.47;4908658;29;19923;-87
2023/04/23 05:02:54;;;;;;;;;;;;;;;4.83;100.00;99034.72;4922610;29;19927;-86
2023/04/23 05:05:21;;;;;;;;;;;;;;;4.79;100.00;99041.22;4918021;29;19942;-86
2023/04/23 05:07:47;;;;;;;;;;;;;;;4.79;100.00;99041.22;4896412;29;20328;-86
2023/04/23 05:10:13;;;;;;;;;;;;;;;4.78;100.00;99031.69;4938361;28;19960;-87
2023/04/23 05:12:42;;;;;;;;;;;;;;;4.75;100.00;99034.59;4910779;29;19927;-86
2023/04/23 05:15:09;;;;;;;;;;;;;;;4.75;100.00;99039.84;4932633;29;20603;-87
2023/04/23 05:17:34;;;;;;;;;;;;;;;4.72;100.00;99040.94;4915340;29;20438;-86
2023/04/23 05:20:00;;;;;;;;;;;;;;;4.71;100.00;99039.28;4951258;28;20013;-86
2023/04/23 05:22:26;;;;;;;;;;;;;;;4.70;100.00;99037.63;4910052;29;19965;-86
2023/04/23 05:24:52;;;;;;;;;;;;;;;4.72;100.00;99040.94;4930363;29;19954;-86
2023/04/23 05:27:18;;;;;;;;;;;;;;;4.75;100.00;99045.06;4929223;29;19957;-85
2023/04/23 05:29:44;;;;;;;;;;;;;;;4.76;100.00;99040.66;4936382;29;19959;-86
2023/04/23 05:32:09;;;;;;;;;;;;;;;4.78;100.00;99041.34;4945032;28;19930;-86
2023/04/23 05:34:35;;;;;;;;;;;;;;;4.78;100.00;99043.97;4917206;29;19926;-86
2023/04/23 05:37:01;;;;;;;;;;;;;;;4.79;100.00;99043.84;4903615;29;20340;-86
2023/04/23 05:39:27;;;;;;;;;;;;;;;4.81;100.00;99052.34;4929246;29;20387;-86
2023/04/23 05:41:52;;;;;;;;;;;;;;;4.86;100.00;99061.59;4941600;28;19986;-87
2023/04/23 05:44:18;;;;;;;;;;;;;;;4.92;100.00;99072.31;4926921;29;19927;-87
2023/04/23 05:46:44;;;;;;;;;;;;;;;4.97;100.00;99069.25;4924967;29;20630;-86
2023/04/23 05:49:09;;;;;;;;;;;;;;;5.03;100.00;99068.69;4914247;29;19945;-87
2023/04/23 05:51:35;;;;;;;;;;;;;;;5.04;100.00;99059.88;4922258;29;19949;-87
2023/04/23 05:54:01;;;;;;;;;;;;;;;5.06;100.00;99071.06;4949737;28;19968;-87
2023/04/23 05:56:26;;;;;;;;;;;;;;;5.04;100.00;99065.13;4903161;29;19971;-86
2023/04/23 05:58:52;;;;;;;;;;;;;;;5.02;100.00;99069.66;4935401;29;20001;-87
2023/04/23 06:01:18;;;;;;;;;;;;;;;5.00;100.00;99073.41;4939499;29;19954;-86
2023/04/23 06:03:44;;;;;;;;;;;;;;;5.00;100.00;99070.78;4913379;29;19931;-87
2023/04/23 06:06:11;;;;;;;;;;;;;;;5.07;100.00;99082.34;4928164;29;19919;-87
2023/04/23 06:08:37;;;;;;;;;;;;;;;5.12;100.00;99084.53;4910352;29;19918;-87
2023/04/23 06:11:03;;;;;;;;;;;;;;;5.11;100.00;99091.56;4903143;29;20375;-87
2023/04/23 06:13:29;;;;;;;;;;;;;;;5.11;100.00;99093.34;4909322;29;19923;-87
2023/04/23 06:15:55;;;;;;;;;;;;;;;5.11;100.00;99099.44;4911398;29;20946;-87
2023/04/23 06:18:21;;;;;;;;;;;;;;;5.13;100.00;99102.72;4920419;29;19957;-87
2023/04/23 06:20:47;;;;;;;;;;;;;;;5.12;100.00;99110.72;4918201;29;20006;-87
2023/04/23 06:23:13;;;;;;;;;;;;;;;5.11;100.00;99120.38;4926981;29;19929;-87
2023/04/23 06:25:39;;;;;;;;;;;;;;;5.12;100.00;99116.78;4915310;29;20344;-87
2023/04/23 06:28:05;;;;;;;;;;;;;;;5.11;100.00;99116.94;4891999;29;19919;-87
2023/04/23 06:30:40;;;;;;;;;;;;;;;5.13;100.00;99128.09;4901988;29;19930;-87
2023/04/23 06:33:07;;;;;;;;;;;;;;;5.14;100.00;99124.50;4905589;29;19923;-87
2023/04/23 06:35:33;;;;;;;;;;;;;;;5.15;100.00;99124.38;4923640;29;19923;-87
2023/04/23 06:37:59;;;;;;;;;;;;;;;5.17;100.00;99121.59;4892264;29;20269;-87
2023/04/23 06:40:25;;;;;;;;;;;;;;;5.18;100.00;99131.09;4931058;29;19926;-87
2023/04/23 06:42:50;;;;;;;;;;;;;;;5.23;100.00;99134.13;4925324;29;19919;-87
2023/04/23 06:45:18;;;;;;;;;;;;;;;5.26;100.00;99122.53;4923987;29;19923;-87
2023/04/23 06:47:44;;;;;;;;;;;;;;;5.30;100.00;99135.19;4919108;29;20038;-87
2023/04/23 06:50:10;;;;;;;;;;;;;;;5.29;100.00;99136.19;4927530;29;20096;-88
2023/04/23 06:52:35;;;;;;;;;;;;;;;5.33;100.00;99139.34;4869178;29;19982;-87
2023/04/23 06:55:01;;;;;;;;;;;;;;;5.35;100.00;99132.19;4926206;29;20014;-87
2023/04/23 06:57:27;;;;;;;;;;;;;;;5.37;100.00;99135.47;4930428;29;19926;-88
2023/04/23 06:59:52;;;;;;;;;;;;;;;5.42;100.00;99133.25;4940397;29;20036;-88
2023/04/23 07:02:21;;;;;;;;;;;;;;;5.48;100.00;99137.06;4917386;29;20303;-88
2023/04/23 07:04:47;;;;;;;;;;;;;;;5.50;100.00;99148.25;4928097;29;19922;-88
2023/04/23 07:07:13;;;;;;;;;;;;;;;5.54;100.00;99139.13;4928102;29;19919;-87
2023/04/23 07:09:38;;;;;;;;;;;;;;;5.61;100.00;99144.63;4916120;29;20067;-87
2023/04/23 07:12:04;;;;;;;;;;;;;;;5.67;100.00;99148.47;4903301;29;20019;-80
2023/04/23 07:14:30;;;;;;;;;;;;;;;5.72;100.00;99143.59;4916483;29;19923;-80
2023/04/23 07:16:56;;;;;;;;;;;;;;;5.78;100.00;99147.47;4918688;29;20010;-88
2023/04/23 07:19:22;;;;;;;;;;;;;;;5.83;100.00;99148.66;4925300;29;20420;-88
2023/04/23 07:21:48;;;;;;;;;;;;;;;5.92;100.00;99151.38;4922798;29;19923;-87
2023/04/23 07:24:13;;;;;;;;;;;;;;;6.02;100.00;99151.34;4904137;29;19949;-87
2023/04/23 07:26:39;;;;;;;;;;;;;;;6.12;100.00;99149.50;4933075;29;19930;-88
2023/04/23 07:29:06;;;;;;;;;;;;;;;6.18;100.00;99154.16;4926935;29;19925;-88
2023/04/23 07:31:32;;;;;;;;;;;;;;;6.27;100.00;99157.72;4903562;29;19988;-88
2023/04/23 07:33:58;;;;;;;;;;;;;;;6.35;100.00;99164.00;4899711;29;20009;-88
2023/04/23 07:36:23;;;;;;;;;;;;;;;6.47;100.00;99164.63;4927138;29;19923;-88
2023/04/23 07:38:49;;;;;;;;;;;;;;;6.53;100.00;99161.41;4917495;29;19926;-89
2023/04/23 07:41:15;;;;;;;;;;;;;;;6.57;100.00;99163.56;4915384;29;19922;-89
2023/04/23 07:43:41;;;;;;;;;;;;;;;6.60;100.00;99170.31;4920844;29;19919;-89
2023/04/23 07:46:07;;;;;;;;;;;;;;;6.60;100.00;99172.94;4921094;29;19918;-81
2023/04/23 07:48:35;;;;;;;;;;;;;;;6.54;100.00;99161.25;4906311;29;19926;-80
2023/04/23 07:51:01;;;;;;;;;;;;;;;6.55;100.00;99176.03;4911826;29;19962;-80
2023/04/23 07:53:27;;;;;;;;;;;;;;;6.64;100.00;99176.09;4935183;29;19966;-88
2023/04/23 07:55:56;;;;;;;;;;;;;;;6.72;100.00;99186.66;4930455;29;19922;-88
2023/04/23 07:58:22;;;;;;;;;;;;;;;6.76;100.00;99181.94;4917857;29;20463;-88
2023/04/23 08:00:48;;;;;;;;;;;;;;;6.77;100.00;99184.41;4928422;29;19967;-87
2023/04/23 08:03:13;;;;;;;;;;;;;;;6.86;100.00;99193.19;4918061;29;20349;-88
2023/04/23 08:05:40;;;;;;;;;;;;;;;6.93;100.00;99196.88;4917754;29;20062;-88
2023/04/23 08:08:07;;;;;;;;;;;;;;;6.99;100.00;99198.03;4911458;29;20009;-88
2023/04/23 08:10:33;;;;;;;;;;;;;;;7.02;100.00;99205.66;4928284;29;19926;-88
2023/04/23 08:12:58;;;;;;;;;;;;;;;7.02;100.00;99204.81;4921668;29;19927;-87
2023/04/23 08:15:24;;;;;;;;;;;;;;;7.07;100.00;99206.00;4925798;29;19930;-88
2023/04/23 08:17:49;;;;;;;;;;;;;;;7.15;100.00;99213.13;4926771;29;19927;-88
2023/04/23 08:20:15;;;;;;;;;;;;;;;7.22;100.00;99207.25;4932903;29;19923;-89
2023/04/23 08:22:41;;;;;;;;;;;;;;;7.27;100.00;99212.88;4909713;29;20008;-89
2023/04/23 08:25:07;;;;;;;;;;;;;;;7.29;100.00;99219.63;4923967;29;19923;-88
2023/04/23 08:27:33;;;;;;;;;;;;;;;7.36;100.00;99222.47;4914844;29;20006;-88
2023/04/23 08:29:58;;;;;;;;;;;;;;;7.44;100.00;99221.69;4918449;29;19941;-88
2023/04/23 08:32:24;;;;;;;;;;;;;;;7.52;100.00;99221.75;4921374;29;20383;-88
2023/04/23 08:34:50;;;;;;;;;;;;;;;7.63;100.00;99219.88;4917528;29;19926;-87
2023/04/23 08:37:16;;;;;;;;;;;;;;;7.67;100.00;99218.56;4908901;29;19919;-87
2023/04/23 08:39:41;;;;;;;;;;;;;;;7.73;100.00;99219.72;4902795;29;20308;-88
2023/04/23 08:42:14;;;;;;;;;;;;;;;7.68;100.00;99222.84;4909198;29;20545;-86
2023/04/23 08:44:42;;;;;;;;;;;;;;;7.72;100.00;99223.34;4905043;29;20295;-88
2023/04/23 08:47:09;;;;;;;;;;;;;;;7.77;100.00;99226.34;4924104;29;20441;-89
2023/04/23 08:49:36;;;;;;;;;;;;;;;7.81;100.00;99223.25;4918335;29;19919;-87
2023/04/23 08:52:22;;;;;;;;;;;;;;;7.98;100.00;99223.31;4927039;29;19926;-86
2023/04/23 08:54:49;;;;;;;;;;;;;;;8.14;100.00;99229.63;4891228;29;19919;-87
2023/04/23 08:57:16;;;;;;;;;;;;;;;8.26;100.00;99235.44;4894610;29;19954;-88
2023/04/23 08:59:43;;;;;;;;;;;;;;;8.34;100.00;99238.09;4937125;29;19919;-87
2023/04/23 09:02:09;;;;;;;;;;;;;;;8.47;100.00;99232.38;4910696;29;19927;-86
2023/04/23 09:04:35;;;;;;;;;;;;;;;8.61;100.00;99235.41;4923410;29;19950;-86
2023/04/23 09:07:01;;;;;;;;;;;;;;;8.95;100.00;99241.53;4925389;29;20025;-88
2023/04/23 09:09:28;;;;;;;;;;;;;;;9.17;100.00;99248.78;4893221;29;19951;-88
2023/04/23 09:11:54;;;;;;;;;;;;;;;9.25;100.00;99241.88;4888099;29;19958;-87
2023/04/23 09:14:23;;;;;;;;;;;;;;;9.17;100.00;99250.63;4923433;29;19979;-89
2023/04/23 09:16:49;;;;;;;;;;;;;;;9.08;100.00;99249.78;4919568;29;19982;-89
2023/04/23 09:19:16;;;;;;;;;;;;;;;8.99;100.00;99256.88;4886625;29;19922;-89
2023/04/23 09:21:43;;;;;;;;;;;;;;;8.95;100.00;99252.88;4903036;29;19970;-91
2023/04/23 09:24:13;;;;;;;;;;;;;;;9.05;100.00;99250.94;4913055;29;19989;-88
2023/04/23 09:26:43;;;;;;;;;;;;;;;9.22;100.00;99253.56;4908366;29;20404;-85
2023/04/23 09:29:12;;;;;;;;;;;;;;;9.34;100.00;99259.34;4913427;29;19927;-90
2023/04/23 09:31:38;;;;;;;;;;;;;;;9.35;100.00;99263.63;4918903;29;20358;-89
2023/04/23 09:34:06;;;;;;;;;;;;;;;9.24;100.00;99269.22;4906930;29;19979;-89
2023/04/23 09:36:32;;;;;;;;;;;;;;;9.17;100.00;99271.72;4907353;29;20056;-89
2023/04/23 09:38:58;;;;;;;;;;;;;;;9.03;100.00;99271.34;4905584;29;19919;-90
2023/04/23 09:41:24;;;;;;;;;;;;;;;8.89;100.00;99274.63;4919624;29;20494;-90
2023/04/23 09:43:53;;;;;;;;;;;;;;;8.80;100.00;99271.16;4921112;29;20432;-89
2023/04/23 09:46:40;;;;;;;;;;;;;;;8.81;100.00;99273.63;4904445;29;19923;-88
2023/04/23 09:49:09;;;;;;;;;;;;;;;9.00;100.00;99282.22;4891654;29;19978;-89
2023/04/23 09:51:39;;;;;;;;;;;;;;;9.25;100.00;99284.88;4892444;29;20050;-90
2023/04/23 09:54:24;;;;;;;;;;;;;;;9.50;100.00;99287.53;4896015;29;20337;-89
2023/04/23 09:56:52;;;;;;;;;;;;;;;9.82;100.00;99278.91;4917906;29;20884;-91
2023/04/23 09:59:18;;;;;;;;;;;;;;;9.84;100.00;99285.66;4894844;29;19915;-90
2023/04/23 10:01:44;;;;;;;;;;;;;;;9.66;100.00;99283.22;4916364;29;19938;-90
2023/04/23 10:04:11;;;;;;;;;;;;;;;9.70;100.00;99289.78;4919380;29;19923;-91
2023/04/23 10:06:36;;;;;;;;;;;;;;;9.87;100.00;99287.13;4921723;29;19919;-90
2023/04/23 10:09:02;;;;;;;;;;;;;;;10.09;100.00;99290.03;4907497;29;19934;-90
2023/04/23 10:11:28;;;;;;;;;;;;;;;10.25;100.00;99281.25;4902875;29;19982;-90
2023/04/23 10:13:54;;;;;;;;;;;;;;;10.48;100.00;99278.69;4910610;29;19923;-90
2023/04/23 10:16:22;;;;;;;;;;;;;;;10.64;100.00;99272.50;4910786;29;20438;-80
2023/04/23 10:18:49;;;;;;;;;;;;;;;10.81;100.00;99283.00;4909527;29;19958;-80
2023/04/23 10:21:16;;;;;;;;;;;;;;;10.99;100.00;99277.41;4898049;29;19919;-87
2023/04/23 10:23:43;;;;;;;;;;;;;;;11.07;100.00;99275.72;4912923;29;20414;-90
2023/04/23 10:26:11;;;;;;;;;;;;;;;10.99;100.00;99285.34;4895968;29;19927;-81
2023/04/23 10:28:37;;;;;;;;;;;;;;;10.75;100.00;99287.13;4891522;29;19922;-81
2023/04/23 10:31:04;;;;;;;;;;;;;;;10.51;100.00;99283.63;4905332;29;19919;-90
2023/04/23 10:33:30;;;;;;;;;;;;;;;10.33;100.00;99288.31;4909611;29;20385;-89
2023/04/23 10:35:56;;;;;;;;;;;;;;;10.11;100.00;99290.72;4862225;29;19919;-91
2023/04/23 10:38:22;;;;;;;;;;;;;;;9.98;100.00;99301.78;4894984;29;20368;-91
2023/04/23 10:40:49;;;;;;;;;;;;;;;9.97;100.00;99300.97;4917973;29;19926;-91
2023/04/23 10:43:16;;;;;;;;;;;;;;;10.01;100.00;99301.44;4912915;29;19923;-91
2023/04/23 10:45:42;;;;;;;;;;;;;;;10.01;100.00;99298.81;4895567;29;20345;-90
2023/04/23 10:48:08;;;;;;;;;;;;;;;9.99;100.00;99301.63;4926707;29;19919;-91
2023/04/23 10:50:35;;;;;;;;;;;;;;;9.99;100.00;99298.97;4921567;29;20403;-89
2023/04/23 10:53:02;;;;;;;;;;;;;;;9.92;100.00;99301.47;4945806;28;19919;-90
2023/04/23 10:55:29;;;;;;;;;;;;;;;9.78;100.00;99304.78;4909210;29;19933;-88
2023/04/23 10:58:02;;;;;;;;;;;;;;;9.68;100.00;99305.78;4908685;29;19923;-89
2023/04/23 11:00:40;;;;;;;;;;;;;;;9.72;100.00;99308.09;4906169;29;20402;-90
2023/04/23 11:03:25;;;;;;;;;;;;;;;9.90;100.00;99305.28;4924025;29;19938;-80
2023/04/23 11:05:51;;;;;;;;;;;;;;;10.21;100.00;99309.81;4939574;28;19944;-80
2023/04/23 11:08:17;;;;;;;;;;;;;;;10.45;100.00;99310.72;4922697;29;19994;-80
2023/04/23 11:10:56;;;;;;;;;;;;;;;10.72;100.00;99302.53;4925461;29;19925;-80
2023/04/23 11:13:24;;;;;;;;;;;;;;;10.95;100.00;99302.56;4932580;29;19921;-90
2023/04/23 11:16:09;;;;;;;;;;;;;;;11.25;100.00;99302.69;4926443;29;20441;-90
2023/04/23 11:19:05;;;;;;;;;;;;;;;11.32;100.00;99301.97;4944383;28;20445;-91
2023/04/23 11:21:49;;;;;;;;;;;;;;;11.17;100.00;99308.03;4908061;29;20326;-91
2023/04/23 11:24:15;;;;;;;;;;;;;;;10.76;100.00;99309.94;4906894;29;20399;-90
2023/04/23 11:26:41;;;;;;;;;;;;;;;10.51;100.00;99315.34;4929999;29;19923;-81
2023/04/23 11:29:07;;;;;;;;;;;;;;;10.52;100.00;99313.53;4912149;29;19926;-80
2023/04/23 11:31:33;;;;;;;;;;;;;;;10.65;100.00;99318.25;4928784;28;19923;-87
2023/04/23 11:33:59;;;;;;;;;;;;;;;10.85;100.00;99315.16;4918344;29;20474;-87
2023/04/23 11:36:26;;;;;;;;;;;;;;;11.08;100.00;99311.72;4901398;29;19941;-88
2023/04/23 11:38:55;;;;;;;;;;;;;;;11.23;100.00;99317.06;4927924;29;20006;-87
2023/04/23 11:41:23;;;;;;;;;;;;;;;11.27;100.00;99315.72;4932398;29;19922;-89
2023/04/23 11:43:49;;;;;;;;;;;;;;;11.43;100.00;99317.44;4896721;29;19934;-89
2023/04/23 11:46:15;;;;;;;;;;;;;;;11.56;100.00;99321.28;4938411;28;19919;-89
2023/04/23 11:48:40;;;;;;;;;;;;;;;11.62;100.00;99316.13;4923875;29;19930;-88
2023/04/23 11:51:07;;;;;;;;;;;;;;;11.62;100.00;99323.22;4931124;29;19930;-91
2023/04/23 11:53:34;;;;;;;;;;;;;;;11.58;100.00;99329.88;4915970;29;19958;-88
2023/04/23 11:55:59;;;;;;;;;;;;;;;11.72;100.00;99323.78;4881333;29;19922;-88
2023/04/23 11:58:25;;;;;;;;;;;;;;;11.84;100.00;99331.28;4904387;29;19918;-86
2023/04/23 12:00:56;;;;;;;;;;;;;;;11.89;100.00;99331.59;4914779;29;19923;-87
2023/04/23 12:03:24;;;;;;;;;;;;;;;11.86;100.00;99338.06;4871880;28;19966;-88
2023/04/23 12:05:50;;;;;;;;;;;;;;;11.75;100.00;99333.22;4929261;29;19922;-87
2023/04/23 12:08:17;;;;;;;;;;;;;;;11.63;100.00;99336.28;4916976;29;20401;-87
2023/04/23 12:10:44;;;;;;;;;;;;;;;11.54;100.00;99338.19;4908286;29;19927;-88
2023/04/23 12:13:13;;;;;;;;;;;;;;;11.35;100.00;99333.38;4896312;29;19929;-88
2023/04/23 12:15:46;;;;;;;;;;;;;;;11.20;100.00;99341.22;4908320;29;19981;-89
2023/04/23 12:18:12;;;;;;;;;;;;;;;10.78;100.00;99350.22;4926249;29;19919;-87
2023/04/23 12:20:39;;;;;;;;;;;;;;;10.51;100.00;99349.69;4944227;28;20283;-89
2023/04/23 12:23:07;;;;;;;;;;;;;;;10.42;100.00;99355.97;4895076;29;19927;-89
2023/04/23 12:25:34;;;;;;;;;;;;;;;10.38;100.00;99352.81;4911667;29;20368;-89
2023/04/23 12:28:02;;;;;;;;;;;;;;;10.39;100.00;99362.41;4943658;28;20049;-87
2023/04/23 12:30:28;;;;;;;;;;;;;;;10.53;100.00;99354.78;4912219;29;19966;-89
2023/04/23 12:33:01;;;;;;;;;;;;;;;10.57;100.00;99366.69;4913859;29;19926;-88
2023/04/23 12:35:38;;;;;;;;;;;;;;;10.61;100.00;99367.16;4940837;28;20376;-89
2023/04/23 12:38:04;;;;;;;;;;;;;;;10.74;100.00;99374.53;4920739;29;19937;-88
2023/04/23 12:40:30;;;;;;;;;;;;;;;10.81;100.00;99372.03;4913353;29;19919;-88
2023/04/23 12:42:56;;;;;;;;;;;;;;;10.83;100.00;99378.78;4938294;29;20097;-88
2023/04/23 12:45:22;;;;;;;;;;;;;;;10.85;100.00;99382.09;4911156;29;19919;-87